sensor_id;sensor_type;location;lat;lon;timestamp;P1;durP1;ratioP1;P2;durP2;ratioP2
6378;SDS011;3222;48.858;10.128;2023-05-17T00:01:31;1.63;;;1.53;;
6378;SDS011;3222;48.858;10.128;2023-05-17T00:03:57;6.90;;;1.83;;
6378;SDS011;3222;48.858;10.128;2023-05-17T00:06:23;5.00;;;1.60;;
6378;SDS011;3222;48.858;10.128;2023-05-17T00:08:48;4.47;;;1.67;;
6378;SDS011;3222;48.858;10.128;2023-05-17T00:11:14;3.03;;;1.80;;
6378;SDS011;3222;48.858;10.128;2023-05-17T00:13:40;2.60;;;1.60;;
6378;SDS011;3222;48.858;10.128;2023-05-17T00:16:06;4.07;;;1.70;;
6378;SDS011;3222;48.858;10.128;2023-05-17T00:18:32;2.47;;;1.80;;
6378;SDS011;3222;48.858;10.128;2023-05-17T00:20:58;2.50;;;2.03;;
6378;SDS011;3222;48.858;10.128;2023-05-17T00:23:23;4.83;;;1.80;;
6378;SDS011;3222;48.858;10.128;2023-05-17T00:25:49;2.80;;;1.63;;
6378;SDS011;3222;48.858;10.128;2023-05-17T00:28:15;2.97;;;1.40;;
6378;SDS011;3222;48.858;10.128;2023-05-17T00:30:40;2.80;;;1.67;;
6378;SDS011;3222;48.858;10.128;2023-05-17T00:33:06;2.20;;;1.63;;
6378;SDS011;3222;48.858;10.128;2023-05-17T00:35:32;4.43;;;1.80;;
6378;SDS011;3222;48.858;10.128;2023-05-17T00:37:58;2.77;;;1.70;;
6378;SDS011;3222;48.858;10.128;2023-05-17T00:40:23;2.70;;;1.77;;
6378;SDS011;3222;48.858;10.128;2023-05-17T00:42:49;2.67;;;1.80;;
6378;SDS011;3222;48.858;10.128;2023-05-17T00:45:15;3.13;;;1.40;;
6378;SDS011;3222;48.858;10.128;2023-05-17T00:47:41;6.07;;;1.57;;
6378;SDS011;3222;48.858;10.128;2023-05-17T00:50:07;1.50;;;1.40;;
6378;SDS011;3222;48.858;10.128;2023-05-17T00:52:33;2.13;;;1.30;;
6378;SDS011;3222;48.858;10.128;2023-05-17T00:55:00;1.93;;;1.43;;
6378;SDS011;3222;48.858;10.128;2023-05-17T00:57:26;6.90;;;1.57;;
6378;SDS011;3222;48.858;10.128;2023-05-17T00:59:53;1.57;;;1.40;;
6378;SDS011;3222;48.858;10.128;2023-05-17T01:02:20;4.50;;;1.73;;
6378;SDS011;3222;48.858;10.128;2023-05-17T01:04:46;1.97;;;1.40;;
6378;SDS011;3222;48.858;10.128;2023-05-17T01:07:12;7.90;;;1.57;;
6378;SDS011;3222;48.858;10.128;2023-05-17T01:09:38;3.53;;;1.57;;
6378;SDS011;3222;48.858;10.128;2023-05-17T01:17:16;3.23;;;1.83;;
6378;SDS011;3222;48.858;10.128;2023-05-17T01:19:52;3.20;;;1.73;;
6378;SDS011;3222;48.858;10.128;2023-05-17T01:27:46;3.20;;;1.50;;
6378;SDS011;3222;48.858;10.128;2023-05-17T01:30:14;2.70;;;1.70;;
6378;SDS011;3222;48.858;10.128;2023-05-17T01:32:43;3.90;;;1.57;;
6378;SDS011;3222;48.858;10.128;2023-05-17T01:35:10;2.43;;;1.53;;
6378;SDS011;3222;48.858;10.128;2023-05-17T01:37:37;2.57;;;1.73;;
6378;SDS011;3222;48.858;10.128;2023-05-17T01:40:03;3.73;;;1.73;;
6378;SDS011;3222;48.858;10.128;2023-05-17T01:42:31;6.87;;;2.07;;
6378;SDS011;3222;48.858;10.128;2023-05-17T01:47:38;2.00;;;1.40;;
6378;SDS011;3222;48.858;10.128;2023-05-17T01:50:09;5.30;;;3.23;;
6378;SDS011;3222;48.858;10.128;2023-05-17T01:52:49;2.13;;;1.53;;
6378;SDS011;3222;48.858;10.128;2023-05-17T01:55:21;2.70;;;2.10;;
6378;SDS011;3222;48.858;10.128;2023-05-17T01:57:48;2.87;;;1.80;;
6378;SDS011;3222;48.858;10.128;2023-05-17T02:00:17;3.37;;;2.00;;
6378;SDS011;3222;48.858;10.128;2023-05-17T02:02:45;2.57;;;1.80;;
6378;SDS011;3222;48.858;10.128;2023-05-17T02:05:11;4.27;;;1.80;;
6378;SDS011;3222;48.858;10.128;2023-05-17T02:07:38;3.30;;;1.80;;
6378;SDS011;3222;48.858;10.128;2023-05-17T02:10:04;2.60;;;1.90;;
6378;SDS011;3222;48.858;10.128;2023-05-17T02:12:30;4.03;;;1.60;;
6378;SDS011;3222;48.858;10.128;2023-05-17T02:14:56;5.77;;;1.90;;
6378;SDS011;3222;48.858;10.128;2023-05-17T02:17:21;3.87;;;1.60;;
6378;SDS011;3222;48.858;10.128;2023-05-17T02:19:47;2.13;;;1.73;;
6378;SDS011;3222;48.858;10.128;2023-05-17T02:22:12;3.00;;;1.37;;
6378;SDS011;3222;48.858;10.128;2023-05-17T02:24:38;3.27;;;1.63;;
6378;SDS011;3222;48.858;10.128;2023-05-17T02:27:04;1.60;;;1.50;;
6378;SDS011;3222;48.858;10.128;2023-05-17T02:29:30;2.60;;;1.60;;
6378;SDS011;3222;48.858;10.128;2023-05-17T02:31:57;1.67;;;1.53;;
6378;SDS011;3222;48.858;10.128;2023-05-17T02:34:23;3.33;;;1.70;;
6378;SDS011;3222;48.858;10.128;2023-05-17T02:36:48;2.80;;;1.70;;
6378;SDS011;3222;48.858;10.128;2023-05-17T02:39:14;4.20;;;1.83;;
6378;SDS011;3222;48.858;10.128;2023-05-17T02:41:40;2.97;;;1.67;;
6378;SDS011;3222;48.858;10.128;2023-05-17T02:44:06;3.57;;;1.60;;
6378;SDS011;3222;48.858;10.128;2023-05-17T02:46:31;4.57;;;1.50;;
6378;SDS011;3222;48.858;10.128;2023-05-17T02:48:57;2.13;;;1.70;;
6378;SDS011;3222;48.858;10.128;2023-05-17T02:51:23;3.73;;;1.60;;
6378;SDS011;3222;48.858;10.128;2023-05-17T02:53:48;2.17;;;1.53;;
6378;SDS011;3222;48.858;10.128;2023-05-17T02:56:14;4.70;;;1.80;;
6378;SDS011;3222;48.858;10.128;2023-05-17T02:58:40;4.63;;;1.70;;
6378;SDS011;3222;48.858;10.128;2023-05-17T03:01:06;2.63;;;1.43;;
6378;SDS011;3222;48.858;10.128;2023-05-17T03:03:31;3.60;;;1.57;;
6378;SDS011;3222;48.858;10.128;2023-05-17T03:06:01;4.77;;;1.63;;
6378;SDS011;3222;48.858;10.128;2023-05-17T03:08:28;1.50;;;1.40;;
6378;SDS011;3222;48.858;10.128;2023-05-17T03:10:55;1.80;;;1.57;;
6378;SDS011;3222;48.858;10.128;2023-05-17T03:13:21;2.70;;;1.57;;
6378;SDS011;3222;48.858;10.128;2023-05-17T03:15:47;6.73;;;1.73;;
6378;SDS011;3222;48.858;10.128;2023-05-17T03:18:12;1.67;;;1.40;;
6378;SDS011;3222;48.858;10.128;2023-05-17T03:20:39;2.47;;;1.57;;
6378;SDS011;3222;48.858;10.128;2023-05-17T03:23:05;5.00;;;1.53;;
6378;SDS011;3222;48.858;10.128;2023-05-17T03:25:35;3.23;;;1.60;;
6378;SDS011;3222;48.858;10.128;2023-05-17T03:28:02;4.43;;;1.57;;
6378;SDS011;3222;48.858;10.128;2023-05-17T03:30:27;8.17;;;1.70;;
6378;SDS011;3222;48.858;10.128;2023-05-17T03:32:54;2.97;;;1.40;;
6378;SDS011;3222;48.858;10.128;2023-05-17T03:35:19;4.20;;;1.70;;
6378;SDS011;3222;48.858;10.128;2023-05-17T03:37:49;4.73;;;1.73;;
6378;SDS011;3222;48.858;10.128;2023-05-17T03:40:16;2.63;;;1.83;;
6378;SDS011;3222;48.858;10.128;2023-05-17T03:42:41;2.80;;;1.40;;
6378;SDS011;3222;48.858;10.128;2023-05-17T03:45:08;3.07;;;1.57;;
6378;SDS011;3222;48.858;10.128;2023-05-17T03:47:34;3.17;;;1.50;;
6378;SDS011;3222;48.858;10.128;2023-05-17T03:50:00;3.10;;;1.53;;
6378;SDS011;3222;48.858;10.128;2023-05-17T03:52:28;1.90;;;1.70;;
6378;SDS011;3222;48.858;10.128;2023-05-17T03:54:53;2.83;;;1.57;;
6378;SDS011;3222;48.858;10.128;2023-05-17T03:57:20;1.90;;;1.50;;
6378;SDS011;3222;48.858;10.128;2023-05-17T03:59:46;2.70;;;1.80;;
6378;SDS011;3222;48.858;10.128;2023-05-17T04:02:14;2.50;;;1.70;;
6378;SDS011;3222;48.858;10.128;2023-05-17T04:04:40;2.87;;;1.50;;
6378;SDS011;3222;48.858;10.128;2023-05-17T04:07:06;4.13;;;1.53;;
6378;SDS011;3222;48.858;10.128;2023-05-17T04:09:32;2.90;;;1.70;;
6378;SDS011;3222;48.858;10.128;2023-05-17T04:11:59;3.47;;;1.50;;
6378;SDS011;3222;48.858;10.128;2023-05-17T04:14:25;2.13;;;1.40;;
6378;SDS011;3222;48.858;10.128;2023-05-17T04:16:50;4.77;;;1.77;;
6378;SDS011;3222;48.858;10.128;2023-05-17T04:19:16;2.00;;;1.67;;
6378;SDS011;3222;48.858;10.128;2023-05-17T04:21:42;2.97;;;1.80;;
6378;SDS011;3222;48.858;10.128;2023-05-17T04:24:08;2.70;;;1.53;;
6378;SDS011;3222;48.858;10.128;2023-05-17T04:26:34;6.33;;;1.50;;
6378;SDS011;3222;48.858;10.128;2023-05-17T04:29:00;2.40;;;2.00;;
6378;SDS011;3222;48.858;10.128;2023-05-17T04:31:25;3.73;;;2.40;;
6378;SDS011;3222;48.858;10.128;2023-05-17T04:33:52;10.17;;;5.07;;
6378;SDS011;3222;48.858;10.128;2023-05-17T04:36:17;17.10;;;8.30;;
6378;SDS011;3222;48.858;10.128;2023-05-17T04:38:43;29.97;;;11.43;;
6378;SDS011;3222;48.858;10.128;2023-05-17T04:41:12;25.40;;;10.60;;
6378;SDS011;3222;48.858;10.128;2023-05-17T04:43:38;17.43;;;8.47;;
6378;SDS011;3222;48.858;10.128;2023-05-17T04:46:08;16.67;;;7.77;;
6378;SDS011;3222;48.858;10.128;2023-05-17T04:48:34;11.87;;;7.00;;
6378;SDS011;3222;48.858;10.128;2023-05-17T04:51:00;10.43;;;6.50;;
6378;SDS011;3222;48.858;10.128;2023-05-17T04:53:28;9.83;;;6.40;;
6378;SDS011;3222;48.858;10.128;2023-05-17T04:55:55;10.10;;;5.47;;
6378;SDS011;3222;48.858;10.128;2023-05-17T04:58:23;10.83;;;4.40;;
6378;SDS011;3222;48.858;10.128;2023-05-17T05:00:52;5.30;;;3.93;;
6378;SDS011;3222;48.858;10.128;2023-05-17T05:03:18;8.63;;;3.70;;
6378;SDS011;3222;48.858;10.128;2023-05-17T05:05:44;7.53;;;3.50;;
6378;SDS011;3222;48.858;10.128;2023-05-17T05:08:11;6.93;;;3.37;;
6378;SDS011;3222;48.858;10.128;2023-05-17T05:10:37;6.73;;;3.23;;
6378;SDS011;3222;48.858;10.128;2023-05-17T05:13:02;6.13;;;3.13;;
6378;SDS011;3222;48.858;10.128;2023-05-17T05:15:28;5.40;;;3.30;;
6378;SDS011;3222;48.858;10.128;2023-05-17T05:17:57;4.73;;;2.70;;
6378;SDS011;3222;48.858;10.128;2023-05-17T05:20:23;3.07;;;2.50;;
6378;SDS011;3222;48.858;10.128;2023-05-17T05:22:49;6.80;;;2.67;;
6378;SDS011;3222;48.858;10.128;2023-05-17T05:25:16;4.77;;;2.83;;
6378;SDS011;3222;48.858;10.128;2023-05-17T05:27:43;5.23;;;2.67;;
6378;SDS011;3222;48.858;10.128;2023-05-17T05:30:10;5.63;;;2.57;;
6378;SDS011;3222;48.858;10.128;2023-05-17T05:32:36;5.20;;;2.80;;
6378;SDS011;3222;48.858;10.128;2023-05-17T05:35:02;4.37;;;2.60;;
6378;SDS011;3222;48.858;10.128;2023-05-17T05:37:29;5.00;;;2.30;;
6378;SDS011;3222;48.858;10.128;2023-05-17T05:39:56;3.57;;;2.17;;
6378;SDS011;3222;48.858;10.128;2023-05-17T05:42:22;3.13;;;2.13;;
6378;SDS011;3222;48.858;10.128;2023-05-17T05:44:48;2.27;;;1.90;;
6378;SDS011;3222;48.858;10.128;2023-05-17T05:47:15;5.23;;;2.27;;
6378;SDS011;3222;48.858;10.128;2023-05-17T05:49:41;4.20;;;2.03;;
6378;SDS011;3222;48.858;10.128;2023-05-17T05:52:07;3.37;;;2.00;;
6378;SDS011;3222;48.858;10.128;2023-05-17T05:54:34;4.70;;;2.30;;
6378;SDS011;3222;48.858;10.128;2023-05-17T05:57:00;5.13;;;2.23;;
6378;SDS011;3222;48.858;10.128;2023-05-17T05:59:26;4.37;;;2.30;;
6378;SDS011;3222;48.858;10.128;2023-05-17T06:01:52;5.33;;;2.60;;
6378;SDS011;3222;48.858;10.128;2023-05-17T06:04:18;6.10;;;2.43;;
6378;SDS011;3222;48.858;10.128;2023-05-17T06:06:44;4.20;;;2.10;;
6378;SDS011;3222;48.858;10.128;2023-05-17T06:09:10;4.97;;;2.17;;
6378;SDS011;3222;48.858;10.128;2023-05-17T06:11:39;5.30;;;2.20;;
6378;SDS011;3222;48.858;10.128;2023-05-17T06:14:04;3.50;;;2.17;;
6378;SDS011;3222;48.858;10.128;2023-05-17T06:16:30;4.13;;;2.33;;
6378;SDS011;3222;48.858;10.128;2023-05-17T06:18:55;5.57;;;2.23;;
6378;SDS011;3222;48.858;10.128;2023-05-17T06:21:21;3.80;;;2.33;;
6378;SDS011;3222;48.858;10.128;2023-05-17T06:23:47;6.37;;;2.23;;
6378;SDS011;3222;48.858;10.128;2023-05-17T06:26:12;4.43;;;2.33;;
6378;SDS011;3222;48.858;10.128;2023-05-17T06:28:38;5.67;;;2.70;;
6378;SDS011;3222;48.858;10.128;2023-05-17T06:31:04;2.60;;;2.40;;
6378;SDS011;3222;48.858;10.128;2023-05-17T06:33:29;5.53;;;2.40;;
6378;SDS011;3222;48.858;10.128;2023-05-17T06:35:55;3.43;;;2.13;;
6378;SDS011;3222;48.858;10.128;2023-05-17T06:38:21;5.50;;;2.33;;
6378;SDS011;3222;48.858;10.128;2023-05-17T06:40:53;3.73;;;2.20;;
6378;SDS011;3222;48.858;10.128;2023-05-17T06:43:20;5.33;;;2.30;;
6378;SDS011;3222;48.858;10.128;2023-05-17T06:45:46;6.60;;;2.30;;
6378;SDS011;3222;48.858;10.128;2023-05-17T06:48:11;5.17;;;2.10;;
6378;SDS011;3222;48.858;10.128;2023-05-17T06:50:37;7.17;;;2.50;;
6378;SDS011;3222;48.858;10.128;2023-05-17T06:53:03;3.83;;;2.37;;
6378;SDS011;3222;48.858;10.128;2023-05-17T06:55:29;3.57;;;2.40;;
6378;SDS011;3222;48.858;10.128;2023-05-17T06:57:55;4.27;;;2.57;;
6378;SDS011;3222;48.858;10.128;2023-05-17T07:00:21;6.13;;;3.00;;
6378;SDS011;3222;48.858;10.128;2023-05-17T07:02:47;3.90;;;2.40;;
6378;SDS011;3222;48.858;10.128;2023-05-17T07:05:12;4.20;;;2.60;;
6378;SDS011;3222;48.858;10.128;2023-05-17T07:07:38;5.13;;;2.90;;
6378;SDS011;3222;48.858;10.128;2023-05-17T07:10:04;5.00;;;3.10;;
6378;SDS011;3222;48.858;10.128;2023-05-17T07:12:31;6.63;;;3.60;;
6378;SDS011;3222;48.858;10.128;2023-05-17T07:14:57;6.67;;;2.90;;
6378;SDS011;3222;48.858;10.128;2023-05-17T07:17:23;5.47;;;2.80;;
6378;SDS011;3222;48.858;10.128;2023-05-17T07:19:49;6.20;;;2.90;;
6378;SDS011;3222;48.858;10.128;2023-05-17T07:22:15;3.63;;;2.53;;
6378;SDS011;3222;48.858;10.128;2023-05-17T07:24:42;6.33;;;2.87;;
6378;SDS011;3222;48.858;10.128;2023-05-17T07:27:08;5.10;;;2.80;;
6378;SDS011;3222;48.858;10.128;2023-05-17T07:29:34;5.27;;;3.20;;
6378;SDS011;3222;48.858;10.128;2023-05-17T07:31:59;4.73;;;2.60;;
6378;SDS011;3222;48.858;10.128;2023-05-17T07:34:25;6.27;;;3.07;;
6378;SDS011;3222;48.858;10.128;2023-05-17T07:36:51;8.13;;;2.83;;
6378;SDS011;3222;48.858;10.128;2023-05-17T07:39:16;5.30;;;3.10;;
6378;SDS011;3222;48.858;10.128;2023-05-17T07:41:42;4.70;;;3.07;;
6378;SDS011;3222;48.858;10.128;2023-05-17T07:44:08;4.37;;;2.60;;
6378;SDS011;3222;48.858;10.128;2023-05-17T07:46:33;5.20;;;2.93;;
6378;SDS011;3222;48.858;10.128;2023-05-17T07:49:00;3.93;;;3.00;;
6378;SDS011;3222;48.858;10.128;2023-05-17T07:51:26;6.97;;;3.10;;
6378;SDS011;3222;48.858;10.128;2023-05-17T07:53:51;9.33;;;3.20;;
6378;SDS011;3222;48.858;10.128;2023-05-17T07:56:17;5.20;;;3.10;;
6378;SDS011;3222;48.858;10.128;2023-05-17T07:58:42;5.53;;;3.43;;
6378;SDS011;3222;48.858;10.128;2023-05-17T08:01:08;8.10;;;3.10;;
6378;SDS011;3222;48.858;10.128;2023-05-17T08:03:34;4.67;;;3.10;;
6378;SDS011;3222;48.858;10.128;2023-05-17T08:06:00;4.03;;;3.40;;
6378;SDS011;3222;48.858;10.128;2023-05-17T08:08:26;4.47;;;3.13;;
6378;SDS011;3222;48.858;10.128;2023-05-17T08:10:52;5.67;;;3.30;;
6378;SDS011;3222;48.858;10.128;2023-05-17T08:13:18;3.47;;;3.17;;
6378;SDS011;3222;48.858;10.128;2023-05-17T08:15:43;5.07;;;2.93;;
6378;SDS011;3222;48.858;10.128;2023-05-17T08:18:09;5.13;;;3.27;;
6378;SDS011;3222;48.858;10.128;2023-05-17T08:20:35;8.33;;;3.60;;
6378;SDS011;3222;48.858;10.128;2023-05-17T08:23:00;5.87;;;3.43;;
6378;SDS011;3222;48.858;10.128;2023-05-17T08:25:26;4.73;;;3.60;;
6378;SDS011;3222;48.858;10.128;2023-05-17T08:27:52;5.23;;;3.63;;
6378;SDS011;3222;48.858;10.128;2023-05-17T08:30:17;6.17;;;3.37;;
6378;SDS011;3222;48.858;10.128;2023-05-17T08:32:43;5.30;;;3.60;;
6378;SDS011;3222;48.858;10.128;2023-05-17T08:35:09;4.23;;;3.10;;
6378;SDS011;3222;48.858;10.128;2023-05-17T08:37:35;4.87;;;3.40;;
6378;SDS011;3222;48.858;10.128;2023-05-17T08:40:01;6.67;;;3.87;;
6378;SDS011;3222;48.858;10.128;2023-05-17T08:42:29;5.90;;;3.10;;
6378;SDS011;3222;48.858;10.128;2023-05-17T08:44:55;5.90;;;3.20;;
6378;SDS011;3222;48.858;10.128;2023-05-17T08:47:20;4.97;;;3.17;;
6378;SDS011;3222;48.858;10.128;2023-05-17T08:49:56;6.23;;;3.20;;
6378;SDS011;3222;48.858;10.128;2023-05-17T08:52:25;4.20;;;3.30;;
6378;SDS011;3222;48.858;10.128;2023-05-17T08:54:53;5.23;;;2.93;;
6378;SDS011;3222;48.858;10.128;2023-05-17T08:57:19;6.10;;;3.17;;
6378;SDS011;3222;48.858;10.128;2023-05-17T08:59:48;6.77;;;3.87;;
6378;SDS011;3222;48.858;10.128;2023-05-17T09:02:16;5.33;;;3.50;;
6378;SDS011;3222;48.858;10.128;2023-05-17T09:04:42;6.50;;;3.50;;
6378;SDS011;3222;48.858;10.128;2023-05-17T09:07:08;4.97;;;3.10;;
6378;SDS011;3222;48.858;10.128;2023-05-17T09:09:33;4.43;;;3.13;;
6378;SDS011;3222;48.858;10.128;2023-05-17T09:11:59;6.70;;;3.90;;
6378;SDS011;3222;48.858;10.128;2023-05-17T09:14:31;5.97;;;3.63;;
6378;SDS011;3222;48.858;10.128;2023-05-17T09:16:59;5.40;;;3.43;;
6378;SDS011;3222;48.858;10.128;2023-05-17T09:19:25;6.53;;;3.87;;
6378;SDS011;3222;48.858;10.128;2023-05-17T09:21:52;6.13;;;3.50;;
6378;SDS011;3222;48.858;10.128;2023-05-17T09:24:26;3.83;;;3.30;;
6378;SDS011;3222;48.858;10.128;2023-05-17T09:26:59;3.73;;;3.17;;
6378;SDS011;3222;48.858;10.128;2023-05-17T09:29:29;7.33;;;4.37;;
6378;SDS011;3222;48.858;10.128;2023-05-17T09:31:57;5.67;;;3.30;;
6378;SDS011;3222;48.858;10.128;2023-05-17T09:34:37;4.37;;;3.10;;
6378;SDS011;3222;48.858;10.128;2023-05-17T09:37:05;7.40;;;3.30;;
6378;SDS011;3222;48.858;10.128;2023-05-17T09:39:36;4.80;;;3.13;;
6378;SDS011;3222;48.858;10.128;2023-05-17T09:42:02;5.73;;;4.03;;
6378;SDS011;3222;48.858;10.128;2023-05-17T09:44:28;3.47;;;3.10;;
6378;SDS011;3222;48.858;10.128;2023-05-17T09:46:55;4.17;;;3.30;;
6378;SDS011;3222;48.858;10.128;2023-05-17T09:49:24;5.60;;;3.80;;
6378;SDS011;3222;48.858;10.128;2023-05-17T09:51:51;3.83;;;2.80;;
6378;SDS011;3222;48.858;10.128;2023-05-17T09:54:16;6.20;;;3.40;;
6378;SDS011;3222;48.858;10.128;2023-05-17T09:56:43;5.30;;;3.20;;
6378;SDS011;3222;48.858;10.128;2023-05-17T09:59:15;5.23;;;3.60;;
6378;SDS011;3222;48.858;10.128;2023-05-17T10:01:41;5.07;;;3.20;;
6378;SDS011;3222;48.858;10.128;2023-05-17T10:04:12;7.87;;;3.53;;
6378;SDS011;3222;48.858;10.128;2023-05-17T10:06:39;7.23;;;3.33;;
6378;SDS011;3222;48.858;10.128;2023-05-17T10:09:05;4.73;;;3.20;;
6378;SDS011;3222;48.858;10.128;2023-05-17T10:11:34;9.17;;;4.00;;
6378;SDS011;3222;48.858;10.128;2023-05-17T10:16:42;7.17;;;3.67;;
6378;SDS011;3222;48.858;10.128;2023-05-17T10:19:09;6.73;;;3.70;;
6378;SDS011;3222;48.858;10.128;2023-05-17T10:21:36;6.33;;;3.90;;
6378;SDS011;3222;48.858;10.128;2023-05-17T10:24:03;7.20;;;3.87;;
6378;SDS011;3222;48.858;10.128;2023-05-17T10:26:31;6.63;;;3.77;;
6378;SDS011;3222;48.858;10.128;2023-05-17T10:28:58;5.23;;;3.47;;
6378;SDS011;3222;48.858;10.128;2023-05-17T10:31:26;6.63;;;3.40;;
6378;SDS011;3222;48.858;10.128;2023-05-17T10:33:54;4.30;;;3.57;;
6378;SDS011;3222;48.858;10.128;2023-05-17T10:36:20;5.53;;;3.70;;
6378;SDS011;3222;48.858;10.128;2023-05-17T10:38:48;5.37;;;3.47;;
6378;SDS011;3222;48.858;10.128;2023-05-17T10:41:15;6.43;;;3.80;;
6378;SDS011;3222;48.858;10.128;2023-05-17T10:43:43;5.83;;;3.60;;
6378;SDS011;3222;48.858;10.128;2023-05-17T10:46:17;6.60;;;3.47;;
6378;SDS011;3222;48.858;10.128;2023-05-17T10:48:51;4.93;;;3.50;;
6378;SDS011;3222;48.858;10.128;2023-05-17T10:51:31;11.53;;;3.60;;
6378;SDS011;3222;48.858;10.128;2023-05-17T10:54:07;5.70;;;3.63;;
6378;SDS011;3222;48.858;10.128;2023-05-17T10:56:49;5.47;;;3.77;;
6378;SDS011;3222;48.858;10.128;2023-05-17T10:59:26;6.17;;;3.93;;
6378;SDS011;3222;48.858;10.128;2023-05-17T11:04:23;8.30;;;3.73;;
6378;SDS011;3222;48.858;10.128;2023-05-17T11:06:50;7.33;;;3.73;;
6378;SDS011;3222;48.858;10.128;2023-05-17T11:09:17;6.23;;;4.00;;
6378;SDS011;3222;48.858;10.128;2023-05-17T11:12:01;8.50;;;4.17;;
6378;SDS011;3222;48.858;10.128;2023-05-17T11:17:16;6.17;;;4.03;;
6378;SDS011;3222;48.858;10.128;2023-05-17T11:19:47;7.93;;;3.87;;
6378;SDS011;3222;48.858;10.128;2023-05-17T11:22:14;4.63;;;3.90;;
6378;SDS011;3222;48.858;10.128;2023-05-17T11:24:41;6.67;;;3.53;;
6378;SDS011;3222;48.858;10.128;2023-05-17T11:27:10;6.83;;;4.03;;
6378;SDS011;3222;48.858;10.128;2023-05-17T11:29:40;5.40;;;3.70;;
6378;SDS011;3222;48.858;10.128;2023-05-17T11:32:09;4.57;;;3.90;;
6378;SDS011;3222;48.858;10.128;2023-05-17T11:34:34;5.87;;;3.60;;
6378;SDS011;3222;48.858;10.128;2023-05-17T11:37:00;5.13;;;3.47;;
6378;SDS011;3222;48.858;10.128;2023-05-17T11:39:28;4.43;;;3.80;;
6378;SDS011;3222;48.858;10.128;2023-05-17T11:41:55;6.20;;;4.00;;
6378;SDS011;3222;48.858;10.128;2023-05-17T11:44:22;5.37;;;3.57;;
6378;SDS011;3222;48.858;10.128;2023-05-17T11:47:05;5.03;;;3.83;;
6378;SDS011;3222;48.858;10.128;2023-05-17T11:49:38;7.70;;;4.03;;
6378;SDS011;3222;48.858;10.128;2023-05-17T11:52:04;9.77;;;4.07;;
6378;SDS011;3222;48.858;10.128;2023-05-17T11:54:31;4.97;;;3.50;;
6378;SDS011;3222;48.858;10.128;2023-05-17T11:56:57;10.70;;;3.97;;
6378;SDS011;3222;48.858;10.128;2023-05-17T11:59:24;6.20;;;4.03;;
6378;SDS011;3222;48.858;10.128;2023-05-17T12:01:50;6.90;;;4.20;;
6378;SDS011;3222;48.858;10.128;2023-05-17T12:04:23;8.60;;;3.53;;
6378;SDS011;3222;48.858;10.128;2023-05-17T12:06:50;6.50;;;3.90;;
6378;SDS011;3222;48.858;10.128;2023-05-17T12:09:16;5.27;;;3.93;;
6378;SDS011;3222;48.858;10.128;2023-05-17T12:11:42;5.37;;;3.63;;
6378;SDS011;3222;48.858;10.128;2023-05-17T12:14:08;7.63;;;3.60;;
6378;SDS011;3222;48.858;10.128;2023-05-17T12:16:35;5.97;;;3.80;;
6378;SDS011;3222;48.858;10.128;2023-05-17T12:19:01;7.70;;;3.60;;
6378;SDS011;3222;48.858;10.128;2023-05-17T12:21:27;8.10;;;4.07;;
6378;SDS011;3222;48.858;10.128;2023-05-17T12:23:52;6.67;;;4.10;;
6378;SDS011;3222;48.858;10.128;2023-05-17T12:26:19;7.33;;;3.93;;
6378;SDS011;3222;48.858;10.128;2023-05-17T12:28:54;4.77;;;3.63;;
6378;SDS011;3222;48.858;10.128;2023-05-17T12:31:31;4.93;;;3.67;;
6378;SDS011;3222;48.858;10.128;2023-05-17T12:33:59;6.87;;;3.70;;
6378;SDS011;3222;48.858;10.128;2023-05-17T12:36:28;5.03;;;3.10;;
6378;SDS011;3222;48.858;10.128;2023-05-17T12:38:57;4.50;;;3.23;;
6378;SDS011;3222;48.858;10.128;2023-05-17T12:41:23;4.90;;;3.40;;
6378;SDS011;3222;48.858;10.128;2023-05-17T12:43:52;6.47;;;3.53;;
6378;SDS011;3222;48.858;10.128;2023-05-17T12:46:20;4.33;;;3.40;;
6378;SDS011;3222;48.858;10.128;2023-05-17T12:48:48;6.93;;;3.40;;
6378;SDS011;3222;48.858;10.128;2023-05-17T12:53:51;6.83;;;3.33;;
6378;SDS011;3222;48.858;10.128;2023-05-17T12:56:23;5.53;;;3.40;;
6378;SDS011;3222;48.858;10.128;2023-05-17T13:01:42;7.77;;;4.17;;
6378;SDS011;3222;48.858;10.128;2023-05-17T13:04:13;8.87;;;3.47;;
6378;SDS011;3222;48.858;10.128;2023-05-17T13:09:10;4.67;;;3.17;;
6378;SDS011;3222;48.858;10.128;2023-05-17T13:11:36;8.40;;;3.40;;
6378;SDS011;3222;48.858;10.128;2023-05-17T13:14:08;4.77;;;3.53;;
6378;SDS011;3222;48.858;10.128;2023-05-17T13:16:37;6.83;;;3.43;;
6378;SDS011;3222;48.858;10.128;2023-05-17T13:19:12;5.97;;;3.83;;
6378;SDS011;3222;48.858;10.128;2023-05-17T13:21:38;4.63;;;3.23;;
6378;SDS011;3222;48.858;10.128;2023-05-17T13:24:04;5.67;;;3.47;;
6378;SDS011;3222;48.858;10.128;2023-05-17T13:26:32;7.70;;;3.63;;
6378;SDS011;3222;48.858;10.128;2023-05-17T13:28:58;5.43;;;3.73;;
6378;SDS011;3222;48.858;10.128;2023-05-17T13:31:24;5.77;;;3.83;;
6378;SDS011;3222;48.858;10.128;2023-05-17T13:33:49;7.17;;;3.70;;
6378;SDS011;3222;48.858;10.128;2023-05-17T13:36:15;8.70;;;3.40;;
6378;SDS011;3222;48.858;10.128;2023-05-17T13:38:41;5.53;;;3.70;;
6378;SDS011;3222;48.858;10.128;2023-05-17T13:41:07;4.50;;;3.20;;
6378;SDS011;3222;48.858;10.128;2023-05-17T13:43:34;3.50;;;3.20;;
6378;SDS011;3222;48.858;10.128;2023-05-17T13:46:00;4.40;;;3.40;;
6378;SDS011;3222;48.858;10.128;2023-05-17T13:48:26;6.30;;;3.73;;
6378;SDS011;3222;48.858;10.128;2023-05-17T13:50:52;5.57;;;3.77;;
6378;SDS011;3222;48.858;10.128;2023-05-17T13:53:19;4.50;;;3.47;;
6378;SDS011;3222;48.858;10.128;2023-05-17T13:55:45;6.93;;;3.20;;
6378;SDS011;3222;48.858;10.128;2023-05-17T13:58:11;5.67;;;3.13;;
6378;SDS011;3222;48.858;10.128;2023-05-17T14:00:37;6.63;;;3.30;;
6378;SDS011;3222;48.858;10.128;2023-05-17T14:03:06;6.20;;;3.63;;
6378;SDS011;3222;48.858;10.128;2023-05-17T14:05:32;5.00;;;3.60;;
6378;SDS011;3222;48.858;10.128;2023-05-17T14:08:00;6.93;;;3.80;;
6378;SDS011;3222;48.858;10.128;2023-05-17T14:10:27;4.70;;;3.00;;
6378;SDS011;3222;48.858;10.128;2023-05-17T14:12:53;6.20;;;3.63;;
6378;SDS011;3222;48.858;10.128;2023-05-17T14:15:18;5.87;;;4.03;;
6378;SDS011;3222;48.858;10.128;2023-05-17T14:17:44;7.07;;;4.30;;
6378;SDS011;3222;48.858;10.128;2023-05-17T14:20:10;5.90;;;4.20;;
6378;SDS011;3222;48.858;10.128;2023-05-17T14:22:36;6.10;;;3.90;;
6378;SDS011;3222;48.858;10.128;2023-05-17T14:25:02;9.97;;;3.80;;
6378;SDS011;3222;48.858;10.128;2023-05-17T14:27:28;7.43;;;3.63;;
6378;SDS011;3222;48.858;10.128;2023-05-17T14:29:54;7.03;;;3.90;;
6378;SDS011;3222;48.858;10.128;2023-05-17T14:32:19;6.63;;;4.07;;
6378;SDS011;3222;48.858;10.128;2023-05-17T14:34:45;4.43;;;4.00;;
6378;SDS011;3222;48.858;10.128;2023-05-17T14:37:11;6.67;;;4.20;;
6378;SDS011;3222;48.858;10.128;2023-05-17T14:39:38;7.23;;;4.40;;
6378;SDS011;3222;48.858;10.128;2023-05-17T14:42:03;6.37;;;3.73;;
6378;SDS011;3222;48.858;10.128;2023-05-17T14:44:29;9.87;;;4.13;;
6378;SDS011;3222;48.858;10.128;2023-05-17T14:46:55;6.00;;;4.40;;
6378;SDS011;3222;48.858;10.128;2023-05-17T14:49:20;6.00;;;3.90;;
6378;SDS011;3222;48.858;10.128;2023-05-17T14:51:46;7.87;;;4.13;;
6378;SDS011;3222;48.858;10.128;2023-05-17T14:54:11;7.07;;;3.90;;
6378;SDS011;3222;48.858;10.128;2023-05-17T14:56:37;5.47;;;3.67;;
6378;SDS011;3222;48.858;10.128;2023-05-17T14:59:03;5.40;;;3.70;;
6378;SDS011;3222;48.858;10.128;2023-05-17T15:01:28;3.57;;;3.23;;
6378;SDS011;3222;48.858;10.128;2023-05-17T15:03:54;5.87;;;3.83;;
6378;SDS011;3222;48.858;10.128;2023-05-17T15:06:20;8.20;;;3.97;;
6378;SDS011;3222;48.858;10.128;2023-05-17T15:08:49;6.60;;;4.33;;
6378;SDS011;3222;48.858;10.128;2023-05-17T15:11:16;6.30;;;3.73;;
6378;SDS011;3222;48.858;10.128;2023-05-17T15:13:41;6.43;;;3.90;;
6378;SDS011;3222;48.858;10.128;2023-05-17T15:16:07;4.93;;;3.70;;
6378;SDS011;3222;48.858;10.128;2023-05-17T15:18:33;5.63;;;3.60;;
6378;SDS011;3222;48.858;10.128;2023-05-17T15:21:00;5.97;;;3.50;;
6378;SDS011;3222;48.858;10.128;2023-05-17T15:23:26;5.73;;;3.57;;
6378;SDS011;3222;48.858;10.128;2023-05-17T15:25:51;5.20;;;3.67;;
6378;SDS011;3222;48.858;10.128;2023-05-17T15:28:17;6.07;;;4.00;;